createdAt,value
2016-06-14T00:01:01.369Z,0
2016-06-14T00:01:45.494Z,0
2016-06-14T00:03:05.421Z,0
2016-06-14T00:05:17.318Z,0
2016-06-14T00:05:33.662Z,0
2016-06-14T00:06:33.478Z,0
2016-06-14T00:08:42.984Z,0
2016-06-14T00:10:02.381Z,0
2016-06-14T00:12:42.466Z,0
2016-06-14T00:13:11.202Z,0
2016-06-14T00:14:11.815Z,0
2016-06-14T00:15:14.397Z,0
2016-06-14T00:16:11.430Z,0
2016-06-14T00:17:17.434Z,0
2016-06-14T00:18:23.921Z,0
2016-06-14T00:19:37.018Z,0
2016-06-14T00:20:37.193Z,0
2016-06-14T00:22:13.949Z,0
2016-06-14T00:22:39.402Z,0
2016-06-14T00:24:20.205Z,0
2016-06-14T00:25:23.489Z,0
2016-06-14T00:25:36.177Z,0
2016-06-14T00:27:26.683Z,0
2016-06-14T00:27:52.089Z,0
2016-06-14T00:28:52.186Z,0
2016-06-14T00:31:08.304Z,0
2016-06-14T00:32:33.168Z,0
2016-06-14T00:33:48.405Z,0
2016-06-14T00:34:01.079Z,0
2016-06-14T00:35:01.145Z,0
2016-06-14T00:36:01.273Z,0
2016-06-14T00:37:13.854Z,0
2016-06-14T00:38:14.123Z,0
2016-06-14T00:39:20.360Z,0
2016-06-14T00:40:26.864Z,0
2016-06-14T00:41:26.882Z,0
2016-06-14T00:43:10.983Z,0
2016-06-14T00:44:11.048Z,0
2016-06-14T00:45:24.285Z,0
2016-06-14T00:46:12.476Z,0
2016-06-14T00:47:30.228Z,0
2016-06-14T00:48:23.779Z,0
2016-06-14T00:49:11.095Z,0
2016-06-14T00:50:30.332Z,0
2016-06-14T00:51:23.960Z,0
2016-06-14T00:52:42.432Z,0
2016-06-14T00:53:36.857Z,0
2016-06-14T00:55:42.644Z,0
2016-06-14T00:56:14.101Z,0
2016-06-14T00:58:11.278Z,0
2016-06-14T00:59:14.344Z,0
2016-06-14T01:00:13.550Z,0
2016-06-14T01:01:11.350Z,0
2016-06-14T01:02:24.166Z,0
2016-06-14T01:03:24.122Z,0
2016-06-14T01:04:30.625Z,0
2016-06-14T01:05:11.426Z,0
2016-06-14T01:06:11.490Z,0
2016-06-14T01:07:24.197Z,0
2016-06-14T01:08:11.590Z,0
2016-06-14T01:09:37.187Z,0
2016-06-14T01:10:11.550Z,0
2016-06-14T01:11:37.225Z,0
2016-06-14T01:12:11.555Z,0
2016-06-14T01:14:08.609Z,0
2016-06-14T01:14:21.312Z,0
2016-06-14T01:16:23.880Z,0
2016-06-14T01:16:36.630Z,0
2016-06-14T01:17:36.571Z,0
2016-06-14T01:18:36.763Z,0
2016-06-14T01:19:55.812Z,0
2016-06-14T01:20:36.705Z,0
2016-06-14T01:22:02.540Z,0
2016-06-14T01:23:39.574Z,0
2016-06-14T01:24:58.987Z,0
2016-06-14T01:25:39.768Z,0
2016-06-14T01:26:39.755Z,0
2016-06-14T01:27:41.212Z,0
2016-06-14T01:28:41.277Z,0
2016-06-14T01:29:41.749Z,0
2016-06-14T01:30:40.064Z,0
2016-06-14T01:31:39.880Z,0
2016-06-14T01:32:39.898Z,0
2016-06-14T01:33:39.948Z,0
2016-06-14T01:34:59.142Z,0
2016-06-14T01:35:47.642Z,0
2016-06-14T01:37:55.226Z,0
2016-06-14T01:39:14.436Z,0
2016-06-14T01:39:56.764Z,0
2016-06-14T01:40:55.267Z,0
2016-06-14T01:41:58.316Z,0
2016-06-14T01:43:08.073Z,0
2016-06-14T01:44:46.029Z,0
2016-06-14T01:45:12.548Z,0
2016-06-14T01:46:11.520Z,0
2016-06-14T01:46:58.785Z,0
2016-06-14T01:47:58.805Z,0
2016-06-14T01:49:00.232Z,0
2016-06-14T01:49:58.872Z,0
2016-06-14T01:51:18.145Z,0
2016-06-14T01:51:58.942Z,0
2016-06-14T01:53:55.854Z,0
2016-06-14T01:54:27.731Z,0
2016-06-14T01:55:59.032Z,0
2016-06-14T01:56:30.972Z,0
2016-06-14T01:57:11.725Z,0
2016-06-14T01:58:11.760Z,0
2016-06-14T01:59:11.872Z,0
2016-06-14T02:00:24.547Z,0
2016-06-14T02:01:13.237Z,0
2016-06-14T02:02:11.834Z,0
2016-06-14T02:03:11.853Z,0
2016-06-14T02:04:11.872Z,0
2016-06-14T02:05:30.937Z,0
2016-06-14T02:06:24.675Z,0
2016-06-14T02:07:43.210Z,0
2016-06-14T02:08:11.806Z,0
2016-06-14T02:09:11.966Z,0
2016-06-14T02:10:12.062Z,0
2016-06-14T02:11:13.425Z,0
2016-06-14T02:12:13.443Z,0
2016-06-14T02:13:12.071Z,0
2016-06-14T02:14:11.935Z,0
2016-06-14T02:15:12.015Z,0
2016-06-14T02:16:13.658Z,0
2016-06-14T02:17:12.146Z,0
2016-06-14T02:18:31.353Z,0
2016-06-14T02:19:15.230Z,0
2016-06-14T02:20:12.217Z,0
2016-06-14T02:21:18.518Z,0
2016-06-14T02:22:24.973Z,0
2016-06-14T02:23:24.993Z,0
2016-06-14T02:25:09.265Z,0
2016-06-14T02:25:28.202Z,0
2016-06-14T02:26:28.221Z,0
2016-06-14T02:27:34.708Z,0
2016-06-14T02:28:34.727Z,0
2016-06-14T02:29:37.402Z,0
2016-06-14T02:31:31.236Z,0
2016-06-14T02:32:31.551Z,0
2016-06-14T02:33:31.523Z,0
2016-06-14T02:34:31.433Z,0
2016-06-14T02:35:34.655Z,0
2016-06-14T02:36:33.016Z,0
2016-06-14T02:37:45.911Z,0
2016-06-14T02:38:34.711Z,0
2016-06-14T02:39:50.995Z,0
2016-06-14T02:40:34.717Z,0
2016-06-14T02:41:31.845Z,0
2016-06-14T02:42:31.786Z,0
2016-06-14T02:43:31.773Z,0
2016-06-14T02:44:34.730Z,0
2016-06-14T02:45:32.748Z,0
2016-06-14T02:46:45.829Z,0
2016-06-14T02:47:46.020Z,0
2016-06-14T02:48:31.898Z,0
2016-06-14T02:49:57.589Z,0
2016-06-14T02:50:33.342Z,0
2016-06-14T02:51:31.938Z,0
2016-06-14T02:52:32.051Z,0
2016-06-14T02:53:44.601Z,0
2016-06-14T02:54:34.791Z,0
2016-06-14T02:55:57.653Z,0
2016-06-14T02:56:31.939Z,0
2016-06-14T02:57:57.738Z,0
2016-06-14T02:58:32.162Z,0
2016-06-14T03:00:03.528Z,0
2016-06-14T03:00:52.825Z,0
2016-06-14T03:02:03.129Z,0
2016-06-14T03:02:31.769Z,0
2016-06-14T03:04:32.291Z,0
2016-06-14T03:05:33.700Z,0
2016-06-14T03:06:44.984Z,0
2016-06-14T03:07:32.363Z,0
2016-06-14T03:08:51.506Z,0
2016-06-14T03:09:45.259Z,5
2016-06-14T03:10:58.043Z,5
2016-06-14T03:11:32.374Z,5
2016-06-14T03:13:29.350Z,5
2016-06-14T03:13:42.194Z,5
2016-06-14T03:15:01.618Z,5
2016-06-14T03:15:44.918Z,5
2016-06-14T03:16:43.593Z,5
2016-06-14T03:17:54.831Z,10
2016-06-14T03:18:42.068Z,10
2016-06-14T03:19:42.087Z,10
2016-06-14T03:20:43.605Z,10
2016-06-14T03:21:42.249Z,10
2016-06-14T03:23:01.408Z,10
2016-06-14T03:23:54.849Z,10
2016-06-14T03:25:13.542Z,10
2016-06-14T03:26:39.342Z,10
2016-06-14T03:27:17.690Z,15
2016-06-14T03:28:04.787Z,15
2016-06-14T03:28:52.068Z,15
2016-06-14T03:30:12.511Z,15
2016-06-14T03:30:53.543Z,15
2016-06-14T03:31:55.326Z,20
2016-06-14T03:32:58.564Z,20
2016-06-14T03:34:04.945Z,25
2016-06-14T03:35:42.683Z,30
2016-06-14T03:36:52.342Z,35
2016-06-14T03:37:05.017Z,35
2016-06-14T03:38:05.021Z,35
2016-06-14T03:40:14.511Z,40
2016-06-14T03:41:33.935Z,45
2016-06-14T03:42:27.485Z,45
2016-06-14T03:43:39.567Z,45
2016-06-14T03:44:29.054Z,45
2016-06-14T03:45:08.604Z,45
2016-06-14T03:47:11.048Z,50
2016-06-14T03:47:23.751Z,50
2016-06-14T03:48:23.738Z,45
2016-06-14T03:49:36.632Z,40
2016-06-14T03:50:26.760Z,35
2016-06-14T03:51:36.654Z,35
2016-06-14T03:53:52.675Z,35
2016-06-14T03:56:07.950Z,35
2016-06-14T03:57:27.173Z,40
2016-06-14T03:58:11.066Z,35
2016-06-14T03:59:33.491Z,35
2016-06-14T04:00:08.494Z,35
2016-06-14T04:02:08.047Z,40
2016-06-14T04:02:20.734Z,40
2016-06-14T04:04:17.679Z,35
2016-06-14T04:04:56.023Z,35
2016-06-14T04:05:49.743Z,40
2016-06-14T04:07:01.700Z,40
2016-06-14T04:08:32.832Z,35
2016-06-14T04:09:11.038Z,30
2016-06-14T04:09:45.585Z,30
2016-06-14T04:11:48.122Z,30
2016-06-14T04:12:00.809Z,30
2016-06-14T04:13:00.828Z,25
2016-06-14T04:14:03.862Z,25
2016-06-14T04:15:03.787Z,25
2016-06-14T04:16:13.574Z,25
2016-06-14T04:17:00.902Z,25
2016-06-14T04:18:51.283Z,25
2016-06-14T04:19:03.955Z,25
2016-06-14T04:20:23.165Z,30
2016-06-14T04:21:04.025Z,30
2016-06-14T04:22:05.593Z,35
2016-06-14T04:23:16.783Z,40
2016-06-14T04:24:16.943Z,50
2016-06-14T04:25:23.290Z,60
2016-06-14T04:26:29.793Z,65
2016-06-14T04:27:03.949Z,65
2016-06-14T04:28:04.155Z,65
2016-06-14T04:29:05.583Z,65
2016-06-14T04:30:17.805Z,55
2016-06-14T04:31:17.590Z,55
2016-06-14T04:32:35.718Z,50
2016-06-14T04:33:04.359Z,50
2016-06-14T04:34:04.283Z,45
2016-06-14T04:36:07.557Z,45
2016-06-14T04:36:20.323Z,45
2016-06-14T04:37:26.357Z,55
2016-06-14T04:38:21.720Z,60
2016-06-14T04:39:33.036Z,65
2016-06-14T04:40:33.070Z,75
2016-06-14T04:42:17.389Z,80
2016-06-14T04:42:36.326Z,85
2016-06-14T04:43:30.110Z,85
2016-06-14T04:44:30.098Z,85
2016-06-14T04:45:43.320Z,95
2016-06-14T04:46:30.151Z,95
2016-06-14T04:47:55.936Z,95
2016-06-14T04:48:31.876Z,90
2016-06-14T04:50:35.867Z,75
2016-06-14T04:50:48.679Z,75
2016-06-14T04:51:48.698Z,75
2016-06-14T04:53:01.451Z,80
2016-06-14T04:53:48.532Z,75
2016-06-14T04:55:58.210Z,65
2016-06-14T04:56:58.197Z,65
2016-06-14T04:57:58.295Z,65
2016-06-14T04:59:01.281Z,65
2016-06-14T04:59:58.331Z,65
2016-06-14T05:00:58.959Z,70
2016-06-14T05:01:58.385Z,75
2016-06-14T05:03:11.110Z,70
2016-06-14T05:04:11.129Z,80
2016-06-14T05:05:17.460Z,80
2016-06-14T05:06:55.400Z,75
2016-06-14T05:07:20.794Z,80
2016-06-14T05:08:58.594Z,85
2016-06-14T05:09:11.300Z,80
2016-06-14T05:10:42.553Z,80
2016-06-14T05:11:17.588Z,85
2016-06-14T05:12:12.919Z,90
2016-06-14T05:13:12.985Z,90
2016-06-14T05:14:11.378Z,90
2016-06-14T05:15:11.538Z,90
2016-06-14T05:16:12.306Z,85
2016-06-14T05:17:11.465Z,80
2016-06-14T05:18:14.500Z,75
2016-06-14T05:19:11.471Z,70
2016-06-14T05:20:25.740Z,65
2016-06-14T05:21:24.274Z,75
2016-06-14T05:23:27.702Z,85
2016-06-14T05:24:11.519Z,90
2016-06-14T05:24:40.394Z,95
2016-06-14T05:26:11.525Z,110
2016-06-14T05:26:53.150Z,115
2016-06-14T05:27:40.480Z,120
2016-06-14T05:28:40.343Z,125
2016-06-14T05:29:53.096Z,130
2016-06-14T05:30:53.646Z,135
2016-06-14T05:32:37.511Z,135
2016-06-14T05:33:02.761Z,135
2016-06-14T05:34:02.921Z,135
2016-06-14T05:35:03.096Z,135
2016-06-14T05:37:00.009Z,135
2016-06-14T05:38:57.015Z,140
2016-06-14T05:39:09.812Z,140
2016-06-14T05:40:22.504Z,140
2016-06-14T05:41:28.946Z,135
2016-06-14T05:42:09.727Z,145
2016-06-14T05:43:35.561Z,145
2016-06-14T05:44:29.002Z,145
2016-06-14T05:45:40.973Z,145
2016-06-14T05:46:40.851Z,150
2016-06-14T05:47:11.133Z,150
2016-06-14T05:48:09.870Z,155
2016-06-14T05:49:09.889Z,160
2016-06-14T05:50:22.863Z,170
2016-06-14T05:51:11.191Z,175
2016-06-14T05:52:13.086Z,180
2016-06-14T05:53:10.011Z,180
2016-06-14T05:54:16.360Z,180
2016-06-14T05:55:10.063Z,175
2016-06-14T05:56:22.835Z,190
2016-06-14T05:57:13.289Z,205
2016-06-14T05:58:10.338Z,215
2016-06-14T05:59:22.907Z,215
2016-06-14T06:00:23.301Z,200
2016-06-14T06:01:30.038Z,185
2016-06-14T06:02:10.382Z,175
2016-06-14T06:03:41.561Z,145
2016-06-14T06:04:23.001Z,135
2016-06-14T06:05:41.831Z,125
2016-06-14T06:07:07.257Z,130
2016-06-14T06:07:51.369Z,140
2016-06-14T06:08:26.310Z,150
2016-06-14T06:09:23.094Z,165
2016-06-14T06:10:35.847Z,175
2016-06-14T06:11:20.116Z,180
2016-06-14T06:13:16.916Z,200
2016-06-14T06:13:55.278Z,205
2016-06-14T06:14:29.484Z,215
2016-06-14T06:16:32.366Z,245
2016-06-14T06:17:04.101Z,255
2016-06-14T06:17:45.071Z,265
2016-06-14T06:18:45.075Z,275
2016-06-14T06:19:45.296Z,280
2016-06-14T06:20:48.127Z,275
2016-06-14T06:21:57.991Z,275
2016-06-14T06:22:48.212Z,275
2016-06-14T06:23:45.231Z,315
2016-06-14T06:24:57.968Z,340
2016-06-14T06:25:45.268Z,350
2016-06-14T06:27:04.459Z,360
2016-06-14T06:27:48.212Z,375
2016-06-14T06:29:04.653Z,405
2016-06-14T06:29:51.593Z,415
2016-06-14T06:31:42.412Z,425
2016-06-14T06:31:55.068Z,425
2016-06-14T06:32:55.181Z,390
2016-06-14T06:34:07.871Z,400
2016-06-14T06:35:07.765Z,390
2016-06-14T06:36:09.362Z,385
2016-06-14T06:38:11.508Z,380
2016-06-14T06:38:49.902Z,380
2016-06-14T06:39:24.108Z,365
2016-06-14T06:40:24.080Z,395
2016-06-14T06:41:24.286Z,425
2016-06-14T06:42:27.321Z,440
2016-06-14T06:43:24.370Z,450
2016-06-14T06:44:43.404Z,545
2016-06-14T06:45:37.433Z,560
2016-06-14T06:46:55.883Z,630
2016-06-14T06:47:24.534Z,705
2016-06-14T06:48:24.623Z,880
2016-06-14T06:49:37.369Z,1325
2016-06-14T06:50:26.129Z,1255
2016-06-14T06:51:43.927Z,1750
2016-06-14T06:52:34.226Z,885
2016-06-14T06:53:50.493Z,1890
2016-06-14T06:54:43.854Z,1070
2016-06-14T06:55:56.194Z,1985
2016-06-14T06:56:50.405Z,865
2016-06-14T06:57:24.959Z,840
2016-06-14T06:59:21.960Z,570
2016-06-14T06:59:34.632Z,550
2016-06-14T07:00:34.685Z,495
2016-06-14T07:01:38.112Z,465
2016-06-14T07:02:47.335Z,455
2016-06-14T07:03:37.839Z,490
2016-06-14T07:04:54.064Z,540
2016-06-14T07:05:54.036Z,600
2016-06-14T07:07:06.149Z,705
2016-06-14T07:07:34.903Z,660
2016-06-14T07:08:34.907Z,555
2016-06-14T07:09:42.628Z,490
2016-06-14T07:10:54.163Z,410
2016-06-14T07:11:34.995Z,385
2016-06-14T07:12:54.264Z,340
2016-06-14T07:13:35.033Z,325
2016-06-14T07:15:32.883Z,260
2016-06-14T07:15:45.618Z,250
2016-06-14T07:17:37.093Z,205
2016-06-14T07:18:02.655Z,180
2016-06-14T07:19:09.158Z,165
2016-06-14T07:20:15.740Z,150
2016-06-14T07:20:49.820Z,150
2016-06-14T07:22:21.280Z,150
2016-06-14T07:22:51.405Z,155
2016-06-14T07:24:47.021Z,180
2016-06-14T07:25:05.958Z,180
2016-06-14T07:25:59.711Z,180
2016-06-14T07:26:59.527Z,185
2016-06-14T07:27:59.545Z,190
2016-06-14T07:28:59.798Z,195
2016-06-14T07:30:12.551Z,210
2016-06-14T07:31:03.445Z,215
2016-06-14T07:32:57.030Z,245
2016-06-14T07:33:09.733Z,240
2016-06-14T07:34:28.941Z,285
2016-06-14T07:35:22.586Z,315
2016-06-14T07:36:09.789Z,350
2016-06-14T07:37:29.638Z,390
2016-06-14T07:38:12.872Z,400
2016-06-14T07:39:29.098Z,455
2016-06-14T07:40:29.085Z,470
2016-06-14T07:41:41.370Z,480
2016-06-14T07:42:10.088Z,480
2016-06-14T07:43:10.060Z,475
2016-06-14T07:44:22.972Z,475
2016-06-14T07:45:11.535Z,495
2016-06-14T07:46:10.258Z,530
2016-06-14T07:47:13.041Z,1035
2016-06-14T07:48:22.970Z,725
2016-06-14T07:49:29.379Z,785
2016-06-14T07:50:23.006Z,850
2016-06-14T07:52:50.982Z,995
2016-06-14T07:53:44.704Z,995
2016-06-14T07:54:26.925Z,1025
2016-06-14T07:55:25.538Z,960
2016-06-14T07:56:25.806Z,925
2016-06-14T07:57:38.451Z,940
2016-06-14T07:58:28.531Z,960
2016-06-14T07:59:44.847Z,865
2016-06-14T08:00:45.069Z,805
2016-06-14T08:01:51.290Z,760
2016-06-14T08:02:56.888Z,710
2016-06-14T08:03:57.125Z,695
2016-06-14T08:04:57.081Z,670
2016-06-14T08:06:38.586Z,645
2016-06-14T08:07:28.918Z,625
2016-06-14T08:08:28.968Z,670
2016-06-14T08:09:38.674Z,620
2016-06-14T08:10:25.802Z,605
2016-06-14T08:11:44.963Z,630
2016-06-14T08:12:28.902Z,630
2016-06-14T08:14:37.205Z,730
2016-06-14T08:15:37.178Z,800
2016-06-14T08:16:50.867Z,805
2016-06-14T08:17:44.917Z,795
2016-06-14T08:18:56.593Z,780
2016-06-14T08:19:56.627Z,775
2016-06-14T08:20:50.083Z,745
2016-06-14T08:21:56.649Z,710
2016-06-14T08:22:50.199Z,685
2016-06-14T08:24:08.764Z,695
2016-06-14T08:24:37.471Z,695
2016-06-14T08:25:37.473Z,710
2016-06-14T08:26:38.945Z,720
2016-06-14T08:27:38.901Z,750
2016-06-14T08:28:50.327Z,680
2016-06-14T08:29:37.502Z,625
2016-06-14T08:30:37.645Z,580
2016-06-14T08:31:37.508Z,555
2016-06-14T08:32:50.433Z,600
2016-06-14T08:33:50.451Z,610
2016-06-14T08:35:40.317Z,540
2016-06-14T08:35:52.833Z,535
2016-06-14T08:37:18.726Z,560
2016-06-14T08:37:56.104Z,595
2016-06-14T08:39:18.904Z,620
2016-06-14T08:39:56.157Z,620
2016-06-14T08:40:53.285Z,570
2016-06-14T08:41:53.211Z,520
2016-06-14T08:42:53.230Z,480
2016-06-14T08:43:54.685Z,440
2016-06-14T08:44:53.282Z,515
2016-06-14T08:45:53.316Z,525
2016-06-14T08:47:05.898Z,470
2016-06-14T08:48:12.588Z,415
2016-06-14T08:49:19.044Z,385
2016-06-14T08:50:19.188Z,465
2016-06-14T08:51:24.757Z,595
2016-06-14T08:52:24.822Z,785
2016-06-14T08:53:24.809Z,830
2016-06-14T08:54:26.204Z,810
2016-06-14T08:54:56.579Z,775
2016-06-14T08:55:53.581Z,740
2016-06-14T08:56:55.038Z,725
2016-06-14T08:58:06.385Z,730
2016-06-14T08:59:06.199Z,665
2016-06-14T08:59:53.797Z,605
2016-06-14T09:02:03.725Z,540
2016-06-14T09:03:03.822Z,465
2016-06-14T09:04:16.465Z,390
2016-06-14T09:05:16.625Z,360
2016-06-14T09:06:05.331Z,330
2016-06-14T09:07:29.635Z,295
2016-06-14T09:08:03.994Z,285
2016-06-14T09:09:29.608Z,280
2016-06-14T09:10:03.874Z,265
2016-06-14T09:11:04.049Z,230
2016-06-14T09:12:05.489Z,205
2016-06-14T09:13:04.290Z,190
2016-06-14T09:14:16.887Z,150
2016-06-14T09:15:16.890Z,135
2016-06-14T09:16:04.424Z,120
2016-06-14T09:17:29.790Z,105
2016-06-14T09:18:04.258Z,105
2016-06-14T09:19:05.715Z,110
2016-06-14T09:20:04.327Z,125
2016-06-14T09:21:17.097Z,135
2016-06-14T09:22:17.208Z,145
2016-06-14T09:23:04.431Z,165
2016-06-14T09:24:35.859Z,210
2016-06-14T09:25:05.905Z,225
2016-06-14T09:27:17.068Z,270
2016-06-14T09:28:04.571Z,280
2016-06-14T09:29:17.292Z,310
2016-06-14T09:30:23.999Z,350
2016-06-14T09:31:36.364Z,400
2016-06-14T09:32:30.179Z,435
2016-06-14T09:33:35.949Z,465
2016-06-14T09:34:31.779Z,480
2016-06-14T09:35:04.982Z,520
2016-06-14T09:36:17.501Z,600
2016-06-14T09:37:07.817Z,655
2016-06-14T09:38:55.292Z,750
2016-06-14T09:39:20.714Z,755
2016-06-14T09:40:27.235Z,745
2016-06-14T09:41:20.782Z,730
2016-06-14T09:42:58.539Z,685
2016-06-14T09:43:11.226Z,680
2016-06-14T09:45:08.186Z,670
2016-06-14T09:45:20.858Z,670
2016-06-14T09:46:53.302Z,675
2016-06-14T09:47:33.991Z,680
2016-06-14T09:48:20.944Z,690
2016-06-14T09:49:20.978Z,710
2016-06-14T09:50:20.998Z,730
2016-06-14T09:51:20.969Z,725
2016-06-14T09:52:20.973Z,740
2016-06-14T09:53:22.319Z,755
2016-06-14T09:54:21.135Z,755
2016-06-14T09:55:24.185Z,760
2016-06-14T09:56:34.066Z,795
2016-06-14T09:57:40.585Z,810
2016-06-14T09:58:21.350Z,815
2016-06-14T09:59:46.809Z,840
2016-06-14T10:00:21.356Z,850
2016-06-14T10:01:54.519Z,865
2016-06-14T10:02:34.304Z,855
2016-06-14T10:03:21.413Z,850
2016-06-14T10:04:47.107Z,840
2016-06-14T10:05:22.872Z,835
2016-06-14T10:07:32.600Z,780
2016-06-14T10:08:51.775Z,755
2016-06-14T10:09:45.309Z,745
2016-06-14T10:11:03.765Z,745
2016-06-14T10:11:58.331Z,760
2016-06-14T10:13:03.990Z,775
2016-06-14T10:13:58.415Z,785
2016-06-14T10:14:45.496Z,775
2016-06-14T10:15:32.749Z,770
2016-06-14T10:17:35.865Z,775
2016-06-14T10:18:48.806Z,770
2016-06-14T10:19:45.386Z,775
2016-06-14T10:20:36.140Z,785
2016-06-14T10:21:48.752Z,790
2016-06-14T10:22:36.193Z,795
2016-06-14T10:23:36.258Z,785
2016-06-14T10:24:48.964Z,750
2016-06-14T10:25:49.014Z,725
2016-06-14T10:26:55.486Z,680
2016-06-14T10:27:36.381Z,665
2016-06-14T10:28:39.648Z,620
2016-06-14T10:29:49.136Z,605
2016-06-14T10:30:36.264Z,590
2016-06-14T10:31:36.470Z,595
2016-06-14T10:32:49.255Z,575
2016-06-14T10:33:36.524Z,545
2016-06-14T10:34:55.854Z,505
2016-06-14T10:35:55.795Z,480
2016-06-14T10:37:39.192Z,485
2016-06-14T10:37:51.754Z,485
2016-06-14T10:38:51.976Z,490
2016-06-14T10:39:53.496Z,490
2016-06-14T10:40:51.967Z,490
2016-06-14T10:41:51.860Z,510
2016-06-14T10:43:11.144Z,535
2016-06-14T10:43:53.523Z,550
2016-06-14T10:44:51.948Z,580
2016-06-14T10:45:52.216Z,615
2016-06-14T10:46:52.689Z,640
2016-06-14T10:47:52.300Z,675
2016-06-14T10:48:55.256Z,710
2016-06-14T10:49:55.416Z,710
2016-06-14T10:51:04.998Z,685
2016-06-14T10:51:52.329Z,655
2016-06-14T10:52:52.332Z,640
2016-06-14T10:54:05.101Z,660
2016-06-14T10:54:52.760Z,670
2016-06-14T10:55:52.419Z,660
2016-06-14T10:57:11.673Z,690
2016-06-14T10:58:05.222Z,715
2016-06-14T10:59:18.006Z,710
2016-06-14T11:00:05.275Z,685
2016-06-14T11:00:52.950Z,660
2016-06-14T11:01:53.250Z,625
2016-06-14T11:02:52.800Z,620
2016-06-14T11:03:54.084Z,635
2016-06-14T11:04:52.697Z,635
2016-06-14T11:05:52.825Z,655
2016-06-14T11:07:05.484Z,675
2016-06-14T11:07:54.315Z,710
2016-06-14T11:09:12.021Z,750
2016-06-14T11:09:52.727Z,790
2016-06-14T11:10:52.934Z,795
2016-06-14T11:12:05.718Z,765
2016-06-14T11:12:54.361Z,725
2016-06-14T11:14:05.708Z,670
2016-06-14T11:14:54.540Z,655
2016-06-14T11:16:05.762Z,620
2016-06-14T11:16:53.483Z,630
2016-06-14T11:17:52.971Z,630
2016-06-14T11:18:56.146Z,615
2016-06-14T11:19:54.649Z,595
2016-06-14T11:20:53.200Z,595
2016-06-14T11:21:56.280Z,575
2016-06-14T11:23:05.987Z,520
2016-06-14T11:23:53.287Z,475
2016-06-14T11:24:53.320Z,425
2016-06-14T11:25:56.543Z,380
2016-06-14T11:26:53.390Z,350
2016-06-14T11:27:53.564Z,310
2016-06-14T11:28:53.271Z,285
2016-06-14T11:30:06.211Z,270
2016-06-14T11:30:53.480Z,270
2016-06-14T11:32:20.077Z,305
2016-06-14T11:32:56.439Z,330
2016-06-14T11:33:53.583Z,375
2016-06-14T11:34:53.789Z,425
2016-06-14T11:35:56.698Z,460
2016-06-14T11:37:06.421Z,480
2016-06-14T11:37:53.689Z,465
2016-06-14T11:38:53.880Z,470
2016-06-14T11:39:53.789Z,490
2016-06-14T11:41:06.557Z,505
2016-06-14T11:42:06.530Z,525
2016-06-14T11:42:56.876Z,535
2016-06-14T11:44:56.539Z,555
2016-06-14T11:45:22.023Z,545
2016-06-14T11:46:09.088Z,530
2016-06-14T11:47:30.013Z,505
2016-06-14T11:48:24.329Z,475
2016-06-14T11:49:40.633Z,415
2016-06-14T11:50:31.617Z,375
2016-06-14T11:52:11.982Z,330
2016-06-14T11:52:43.751Z,315
2016-06-14T11:53:24.798Z,285
2016-06-14T11:55:27.288Z,265
2016-06-14T11:55:39.979Z,265
2016-06-14T11:56:40.106Z,270
2016-06-14T11:57:52.891Z,270
2016-06-14T11:58:47.753Z,270
2016-06-14T12:00:56.353Z,230
2016-06-14T12:01:09.025Z,230
2016-06-14T12:02:09.184Z,210
2016-06-14T12:03:21.673Z,200
2016-06-14T12:04:10.551Z,195
2016-06-14T12:05:34.837Z,190
2016-06-14T12:06:22.071Z,190
2016-06-14T12:07:40.500Z,190
2016-06-14T12:08:40.519Z,190
2016-06-14T12:09:41.991Z,190
2016-06-14T12:11:08.869Z,190
2016-06-14T12:12:09.090Z,190
2016-06-14T12:13:09.390Z,190
2016-06-14T12:14:22.003Z,195
2016-06-14T12:15:09.678Z,200
2016-06-14T12:16:09.462Z,210
2016-06-14T12:17:22.278Z,215
2016-06-14T12:18:10.780Z,220
2016-06-14T12:19:22.331Z,225
2016-06-14T12:20:09.396Z,225
2016-06-14T12:21:12.650Z,230
2016-06-14T12:22:18.918Z,240
2016-06-14T12:23:09.671Z,245
2016-06-14T12:25:19.365Z,265
2016-06-14T12:27:29.152Z,275
2016-06-14T12:28:29.108Z,285
2016-06-14T12:29:41.739Z,300
2016-06-14T12:30:29.270Z,320
2016-06-14T12:31:41.886Z,340
2016-06-14T12:32:29.042Z,365
2016-06-14T12:33:29.202Z,385
2016-06-14T12:34:42.114Z,425
2016-06-14T12:36:19.742Z,480
2016-06-14T12:36:51.464Z,500
2016-06-14T12:39:01.298Z,590
2016-06-14T12:40:01.395Z,645
2016-06-14T12:41:35.727Z,700
2016-06-14T12:42:35.729Z,735
2016-06-14T12:43:48.361Z,775
2016-06-14T12:44:35.799Z,795
2016-06-14T12:46:32.773Z,760
2016-06-14T12:46:46.433Z,755
2016-06-14T12:48:04.623Z,730
2016-06-14T12:48:54.658Z,720
2016-06-14T12:50:48.086Z,700
2016-06-14T12:51:16.383Z,695
2016-06-14T12:52:00.682Z,680
2016-06-14T12:53:19.873Z,665
2016-06-14T12:54:00.844Z,650
2016-06-14T12:55:03.880Z,640
2016-06-14T12:56:03.929Z,640
2016-06-14T12:57:02.323Z,625
2016-06-14T12:58:13.670Z,600
2016-06-14T12:59:00.970Z,585
2016-06-14T13:00:20.207Z,545
2016-06-14T13:01:01.038Z,530
2016-06-14T13:02:00.791Z,515
2016-06-14T13:03:02.763Z,520
2016-06-14T13:04:02.547Z,520
2016-06-14T13:05:07.425Z,540
2016-06-14T13:06:13.928Z,555
2016-06-14T13:07:20.525Z,560
2016-06-14T13:08:01.310Z,570
2016-06-14T13:09:26.938Z,585
2016-06-14T13:10:14.160Z,590
2016-06-14T13:11:01.366Z,595
2016-06-14T13:12:58.325Z,610
2016-06-14T13:13:11.028Z,610
2016-06-14T13:15:02.347Z,625
2016-06-14T13:15:27.925Z,630
2016-06-14T13:16:40.990Z,645
2016-06-14T13:17:16.103Z,640
2016-06-14T13:18:40.826Z,635
2016-06-14T13:19:16.593Z,615
2016-06-14T13:20:46.474Z,590
2016-06-14T13:21:15.255Z,575
2016-06-14T13:22:16.759Z,565
2016-06-14T13:23:15.309Z,550
2016-06-14T13:24:15.344Z,545
2016-06-14T13:25:15.347Z,530
2016-06-14T13:26:34.584Z,500
2016-06-14T13:27:28.009Z,475
2016-06-14T13:29:30.765Z,440
2016-06-14T13:30:30.768Z,415
2016-06-14T13:31:30.802Z,415
2016-06-14T13:32:31.181Z,395
2016-06-14T13:33:30.903Z,385
2016-06-14T13:34:30.920Z,370
2016-06-14T13:35:33.940Z,375
2016-06-14T13:36:34.037Z,390
2016-06-14T13:37:34.009Z,420
2016-06-14T13:38:37.340Z,435
2016-06-14T13:39:31.015Z,450
2016-06-14T13:40:45.252Z,450
2016-06-14T13:41:31.083Z,440
2016-06-14T13:43:33.699Z,430
2016-06-14T13:43:46.405Z,430
2016-06-14T13:44:46.424Z,430
2016-06-14T13:45:47.755Z,430
2016-06-14T13:46:59.320Z,425
2016-06-14T13:47:49.558Z,425
2016-06-14T13:50:02.580Z,420
2016-06-14T13:50:49.848Z,430
2016-06-14T13:52:53.104Z,450
2016-06-14T13:53:07.089Z,460
2016-06-14T13:54:12.061Z,460
2016-06-14T13:55:08.876Z,475
2016-06-14T13:56:31.707Z,505
2016-06-14T13:57:25.164Z,510
2016-06-14T13:58:05.948Z,505
2016-06-14T14:00:15.625Z,485
2016-06-14T14:01:28.394Z,475
2016-06-14T14:02:15.570Z,460
2016-06-14T14:03:15.728Z,455
2016-06-14T14:04:18.873Z,440
2016-06-14T14:05:28.501Z,420
2016-06-14T14:06:28.363Z,405
2016-06-14T14:07:15.819Z,405
2016-06-14T14:08:41.588Z,400
2016-06-14T14:09:17.122Z,400
2016-06-14T14:11:18.488Z,390
2016-06-14T14:11:56.850Z,390
2016-06-14T14:12:31.209Z,390
2016-06-14T14:13:31.073Z,390
2016-06-14T14:14:31.137Z,395
2016-06-14T14:15:31.297Z,405
2016-06-14T14:16:31.238Z,410
2016-06-14T14:17:31.943Z,415
2016-06-14T14:18:32.775Z,440
2016-06-14T14:19:32.841Z,450
2016-06-14T14:20:34.297Z,470
2016-06-14T14:21:32.878Z,480
2016-06-14T14:22:31.490Z,485
2016-06-14T14:23:31.540Z,490
2016-06-14T14:24:31.544Z,490
2016-06-14T14:25:31.609Z,485
2016-06-14T14:26:44.315Z,475
2016-06-14T14:27:33.037Z,465
2016-06-14T14:28:44.399Z,470
2016-06-14T14:29:36.028Z,460
2016-06-14T14:31:34.300Z,445
2016-06-14T14:32:12.849Z,435
2016-06-14T14:33:06.259Z,420
2016-06-14T14:34:46.937Z,395
2016-06-14T14:35:47.096Z,375
2016-06-14T14:36:50.161Z,365
2016-06-14T14:38:06.447Z,355
2016-06-14T14:38:46.962Z,355
2016-06-14T14:41:02.470Z,335
2016-06-14T14:42:02.364Z,330
2016-06-14T14:43:15.274Z,325
2016-06-14T14:44:02.417Z,320
2016-06-14T14:45:02.624Z,325
2016-06-14T14:46:21.704Z,315
2016-06-14T14:47:15.599Z,310
2016-06-14T14:48:16.320Z,305
2016-06-14T14:49:28.386Z,290
2016-06-14T14:50:59.532Z,270
2016-06-14T14:51:37.954Z,260